This is the latest recevied weather packets stored in our database for station/object PY2KO-13. If no packets are shown the sender has not sent any weather packets the latest 10 day(s).
| Time | Temp. | Humidity | Pressure | Rain* | Wind** | Luminosity | Snow |
|---|---|---|---|---|---|---|---|
| 1777821305 | 18.89° C | 78% | 1023.6 hPa | - | - | - | - |
| 1777819505 | 19.44° C | 83% | 1023.8 hPa | - | - | - | - |
| 1777817705 | 20° C | 79% | 1024 hPa | - | - | - | - |
| 1777815905 | 20° C | 79% | 1024.2 hPa | - | - | - | - |
| 1777814105 | 19.44° C | 83% | 1024.4 hPa | - | - | - | - |
| 1777812305 | 18.89° C | 87% | 1024.4 hPa | - | - | - | - |
| 1777810505 | 19.44° C | 86% | 1024 hPa | - | - | - | - |
| 1777808705 | 20° C | 88% | 1023.4 hPa | - | - | - | - |
| 1777806905 | 20° C | 89% | 1022.8 hPa | - | - | - | - |
| 1777805105 | 20° C | 86% | 1022.3 hPa | - | - | - | - |
| 1777803305 | 20° C | 87% | 1021.9 hPa | - | - | - | - |
| 1777801505 | 20° C | 91% | 1021.5 hPa | - | - | - | - |
| 1777799705 | 20.56° C | 87% | 1021.2 hPa | - | - | - | - |
| 1777797905 | 20.56° C | 86% | 1020.7 hPa | - | - | - | - |
| 1777796105 | 20° C | 87% | 1020.3 hPa | - | - | - | - |
| 1777794305 | 20° C | 90% | 1020.3 hPa | - | - | - | - |
| 1777792504 | 20° C | 93% | 1019.8 hPa | - | - | - | - |
| 1777790705 | 19.44° C | 95% | 1019.7 hPa | - | - | - | - |
| 1777788904 | 20.56° C | 84% | 1019.7 hPa | - | - | - | - |
| 1777787104 | 20.56° C | 82% | 1020.1 hPa | - | - | - | - |
| 1777785304 | 20° C | 80% | 1020.6 hPa | - | - | - | - |
| 1777783504 | 20° C | 74% | 1020.1 hPa | - | - | - | - |
| 1777781704 | 20.56° C | 65% | 1020.5 hPa | - | - | - | - |
| 1777779904 | 21.67° C | 57% | 1020.4 hPa | - | - | - | - |
| 1777778105 | 22.22° C | 56% | 1020.1 hPa | - | - | - | - |
* Rain since midnight (hover to see other rain measurements)
** Current wind speed in m/s (hover to see current wind gust speed)